createdAt,value
2023-04-02T00:00:49.190Z,542.00
2023-04-02T00:01:49.230Z,542.00
2023-04-02T00:02:49.284Z,542.00
2023-04-02T00:03:49.257Z,542.00
2023-04-02T00:04:49.242Z,543.00
2023-04-02T00:05:49.253Z,543.00
2023-04-02T00:06:49.269Z,541.00
2023-04-02T00:07:49.287Z,538.00
2023-04-02T00:08:49.289Z,538.00
2023-04-02T00:09:49.312Z,538.00
2023-04-02T00:10:49.318Z,538.00
2023-04-02T00:11:49.337Z,535.00
2023-04-02T00:12:49.369Z,533.00
2023-04-02T00:13:49.355Z,532.00
2023-04-02T00:14:49.386Z,531.00
2023-04-02T00:15:49.385Z,529.00
2023-04-02T00:16:49.473Z,531.00
2023-04-02T00:17:49.491Z,533.00
2023-04-02T00:18:49.448Z,532.00
2023-04-02T00:19:49.442Z,533.00
2023-04-02T00:20:49.475Z,538.00
2023-04-02T00:21:49.479Z,538.00
2023-04-02T00:22:49.494Z,542.00
2023-04-02T00:23:49.519Z,542.00
2023-04-02T00:24:49.537Z,543.00
2023-04-02T00:25:49.550Z,541.00
2023-04-02T00:26:49.566Z,542.00
2023-04-02T00:27:49.611Z,542.00
2023-04-02T00:28:49.638Z,542.00
2023-04-02T00:29:49.633Z,542.00
2023-04-02T00:30:49.650Z,543.00
2023-04-02T00:31:49.699Z,547.00
2023-04-02T00:32:49.737Z,545.00
2023-04-02T00:33:49.698Z,544.00
2023-04-02T00:34:49.703Z,543.00
2023-04-02T00:35:49.725Z,545.00
2023-04-02T00:36:50.131Z,545.00
2023-04-02T00:37:50.143Z,542.00
2023-04-02T00:38:50.134Z,544.00
2023-04-02T00:39:50.131Z,542.00
2023-04-02T00:40:50.123Z,542.00
2023-04-02T00:41:50.134Z,543.00
2023-04-02T00:42:50.139Z,540.00
2023-04-02T00:43:50.124Z,539.00
2023-04-02T00:44:50.158Z,540.00
2023-04-02T00:45:50.138Z,540.00
2023-04-02T00:46:50.120Z,539.00
2023-04-02T00:47:50.148Z,538.00
2023-04-02T00:48:50.138Z,540.00
2023-04-02T00:49:50.120Z,544.00
2023-04-02T00:50:50.133Z,544.00
2023-04-02T00:51:50.138Z,543.00
2023-04-02T00:52:50.133Z,540.00
2023-04-02T00:53:50.123Z,538.00
2023-04-02T00:54:50.130Z,537.00
2023-04-02T00:55:50.122Z,535.00
2023-04-02T00:56:50.168Z,533.00
2023-04-02T00:57:50.158Z,533.00
2023-04-02T00:58:50.168Z,534.00
2023-04-02T00:59:50.195Z,533.00
2023-04-02T01:00:50.189Z,532.00
2023-04-02T01:01:50.245Z,533.00
2023-04-02T01:02:50.318Z,533.00
2023-04-02T01:03:50.187Z,535.00
2023-04-02T01:04:50.170Z,536.00
2023-04-02T01:05:50.188Z,537.00
2023-04-02T01:06:50.192Z,538.00
2023-04-02T01:07:50.200Z,538.00
2023-04-02T01:08:50.224Z,536.00
2023-04-02T01:09:50.238Z,536.00
2023-04-02T01:10:50.245Z,536.00
2023-04-02T01:11:50.283Z,536.00
2023-04-02T01:12:50.402Z,539.00
2023-04-02T01:13:50.335Z,539.00
2023-04-02T01:14:50.353Z,539.00
2023-04-02T01:15:50.412Z,538.00
2023-04-02T01:16:50.446Z,540.00
2023-04-02T01:17:50.464Z,540.00
2023-04-02T01:18:50.520Z,541.00
2023-04-02T01:19:50.520Z,541.00
2023-04-02T01:20:50.557Z,538.00
2023-04-02T01:21:50.556Z,538.00
2023-04-02T01:22:50.572Z,542.00
2023-04-02T01:23:50.595Z,542.00
2023-04-02T01:24:50.601Z,545.00
2023-04-02T01:25:50.962Z,546.00
2023-04-02T01:26:51.011Z,543.00
2023-04-02T01:27:51.010Z,545.00
2023-04-02T01:28:51.010Z,541.00
2023-04-02T01:29:51.029Z,538.00
2023-04-02T01:30:51.009Z,536.00
2023-04-02T01:31:51.030Z,536.00
2023-04-02T01:32:51.079Z,536.00
2023-04-02T01:33:51.022Z,537.00
2023-04-02T01:34:51.011Z,538.00
2023-04-02T01:35:51.044Z,538.00
2023-04-02T01:36:51.016Z,537.00
2023-04-02T01:37:51.003Z,536.00
2023-04-02T01:38:51.021Z,538.00
2023-04-02T01:39:51.015Z,541.00
2023-04-02T01:40:51.012Z,543.00
2023-04-02T01:41:51.011Z,543.00
2023-04-02T01:42:51.015Z,543.00
2023-04-02T01:43:51.021Z,544.00
2023-04-02T01:44:51.027Z,547.00
2023-04-02T01:45:51.602Z,547.00
2023-04-02T01:46:51.103Z,547.00
2023-04-02T01:47:51.032Z,545.00
2023-04-02T01:48:51.034Z,542.00
2023-04-02T01:49:51.025Z,541.00
2023-04-02T01:50:50.117Z,540.00
2023-04-02T01:51:51.053Z,539.00
2023-04-02T01:52:51.075Z,537.00
2023-04-02T01:53:51.081Z,538.00
2023-04-02T01:54:51.106Z,537.00
2023-04-02T01:55:51.116Z,536.00
2023-04-02T01:56:51.171Z,533.00
2023-04-02T01:57:51.142Z,533.00
2023-04-02T01:58:51.170Z,534.00
2023-04-02T01:59:51.185Z,534.00
2023-04-02T02:00:51.264Z,536.00
2023-04-02T02:01:51.287Z,537.00
2023-04-02T02:02:51.296Z,536.00
2023-04-02T02:03:51.287Z,536.00
2023-04-02T02:04:51.293Z,539.00
2023-04-02T02:05:51.285Z,540.00
2023-04-02T02:06:51.302Z,541.00
2023-04-02T02:07:51.323Z,544.00
2023-04-02T02:08:51.346Z,544.00
2023-04-02T02:09:51.363Z,542.00
2023-04-02T02:10:51.386Z,540.00
2023-04-02T02:11:51.406Z,542.00
2023-04-02T02:12:51.425Z,542.00
2023-04-02T02:13:51.444Z,541.00
2023-04-02T02:14:51.467Z,538.00
2023-04-02T02:15:51.499Z,539.00
2023-04-02T02:16:51.506Z,540.00
2023-04-02T02:17:51.553Z,539.00
2023-04-02T02:18:51.539Z,541.00
2023-04-02T02:19:51.557Z,542.00
2023-04-02T02:20:51.605Z,539.00
2023-04-02T02:21:52.548Z,538.00
2023-04-02T02:22:51.615Z,536.00
2023-04-02T02:23:51.631Z,535.00
2023-04-02T02:24:51.650Z,533.00
2023-04-02T02:25:51.671Z,529.00
2023-04-02T02:26:51.681Z,529.00
2023-04-02T02:27:51.697Z,529.00
2023-04-02T02:28:51.734Z,531.00
2023-04-02T02:29:51.805Z,534.00
2023-04-02T02:30:52.555Z,537.00
2023-04-02T02:31:51.902Z,536.00
2023-04-02T02:32:52.092Z,537.00
2023-04-02T02:33:51.875Z,540.00
2023-04-02T02:34:51.897Z,541.00
2023-04-02T02:35:51.940Z,539.00
2023-04-02T02:36:52.000Z,538.00
2023-04-02T02:37:51.953Z,537.00
2023-04-02T02:38:54.272Z,538.00
2023-04-02T02:39:51.979Z,535.00
2023-04-02T02:40:51.989Z,537.00
2023-04-02T02:41:52.003Z,537.00
2023-04-02T02:42:52.020Z,537.00
2023-04-02T02:43:52.563Z,535.00
2023-04-02T02:44:52.048Z,535.00
2023-04-02T02:45:52.095Z,534.00
2023-04-02T02:46:52.064Z,533.00
2023-04-02T02:47:52.097Z,533.00
2023-04-02T02:48:52.092Z,534.00
2023-04-02T02:49:52.131Z,534.00
2023-04-02T02:50:52.112Z,534.00
2023-04-02T02:51:52.114Z,536.00
2023-04-02T02:52:52.148Z,536.00
2023-04-02T02:53:52.138Z,535.00
2023-04-02T02:54:52.140Z,536.00
2023-04-02T02:55:52.156Z,537.00
2023-04-02T02:56:52.232Z,537.00
2023-04-02T02:57:52.173Z,536.00
2023-04-02T02:58:52.188Z,535.00
2023-04-02T02:59:52.209Z,536.00
2023-04-02T03:00:52.195Z,539.00
2023-04-02T03:01:52.197Z,540.00
2023-04-02T03:02:52.307Z,543.00
2023-04-02T03:03:52.396Z,546.00
2023-04-02T03:04:52.225Z,547.00
2023-04-02T03:05:52.242Z,549.00
2023-04-02T03:06:52.245Z,549.00
2023-04-02T03:07:52.254Z,550.00
2023-04-02T03:08:52.296Z,550.00
2023-04-02T03:09:52.292Z,551.00
2023-04-02T03:10:52.299Z,551.00
2023-04-02T03:11:52.313Z,550.00
2023-04-02T03:12:52.317Z,551.00
2023-04-02T03:13:52.335Z,549.00
2023-04-02T03:14:52.343Z,551.00
2023-04-02T03:15:52.402Z,552.00
2023-04-02T03:16:52.371Z,550.00
2023-04-02T03:17:52.469Z,549.00
2023-04-02T03:18:52.396Z,550.00
2023-04-02T03:19:52.413Z,550.00
2023-04-02T03:20:52.429Z,553.00
2023-04-02T03:21:52.436Z,554.00
2023-04-02T03:22:52.441Z,553.00
2023-04-02T03:23:52.462Z,554.00
2023-04-02T03:24:52.519Z,555.00
2023-04-02T03:25:52.504Z,556.00
2023-04-02T03:26:52.506Z,558.00
2023-04-02T03:27:52.520Z,556.00
2023-04-02T03:28:52.526Z,557.00
2023-04-02T03:29:52.538Z,556.00
2023-04-02T03:30:52.599Z,551.00
2023-04-02T03:31:53.071Z,550.00
2023-04-02T03:32:52.579Z,548.00
2023-04-02T03:33:53.576Z,547.00
2023-04-02T03:34:52.581Z,547.00
2023-04-02T03:35:52.605Z,551.00
2023-04-02T03:36:52.603Z,549.00
2023-04-02T03:37:52.619Z,550.00
2023-04-02T03:38:52.627Z,548.00
2023-04-02T03:39:53.589Z,546.00
2023-04-02T03:40:52.689Z,546.00
2023-04-02T03:41:53.578Z,544.00
2023-04-02T03:42:52.685Z,543.00
2023-04-02T03:43:52.712Z,544.00
2023-04-02T03:44:51.704Z,543.00
2023-04-02T03:45:52.713Z,541.00
2023-04-02T03:46:52.802Z,542.00
2023-04-02T03:47:52.774Z,541.00
2023-04-02T03:48:52.756Z,540.00
2023-04-02T03:49:52.766Z,538.00
2023-04-02T03:50:52.772Z,537.00
2023-04-02T03:51:52.786Z,539.00
2023-04-02T03:52:52.798Z,541.00
2023-04-02T03:53:52.806Z,543.00
2023-04-02T03:54:53.585Z,544.00
2023-04-02T03:55:52.952Z,543.00
2023-04-02T03:56:53.016Z,545.00
2023-04-02T03:57:52.981Z,545.00
2023-04-02T03:58:53.005Z,545.00
2023-04-02T03:59:53.043Z,547.00
2023-04-02T04:00:53.064Z,548.00
2023-04-02T04:01:53.109Z,546.00
2023-04-02T04:02:53.153Z,544.00
2023-04-02T04:03:53.131Z,542.00
2023-04-02T04:04:53.125Z,541.00
2023-04-02T04:05:53.163Z,541.00
2023-04-02T04:06:53.181Z,539.00
2023-04-02T04:07:53.200Z,538.00
2023-04-02T04:08:53.238Z,539.00
2023-04-02T04:09:53.259Z,538.00
2023-04-02T04:10:53.341Z,539.00
2023-04-02T04:11:53.338Z,537.00
2023-04-02T04:12:53.385Z,538.00
2023-04-02T04:13:53.384Z,541.00
2023-04-02T04:14:53.406Z,540.00
2023-04-02T04:15:54.085Z,541.00
2023-04-02T04:16:53.524Z,541.00
2023-04-02T04:17:53.497Z,541.00
2023-04-02T04:18:53.478Z,545.00
2023-04-02T04:19:53.502Z,546.00
2023-04-02T04:20:53.526Z,548.00
2023-04-02T04:21:53.544Z,547.00
2023-04-02T04:22:53.556Z,544.00
2023-04-02T04:23:53.609Z,544.00
2023-04-02T04:24:53.669Z,545.00
2023-04-02T04:25:54.589Z,544.00
2023-04-02T04:26:53.621Z,545.00
2023-04-02T04:27:54.591Z,546.00
2023-04-02T04:28:53.711Z,543.00
2023-04-02T04:29:53.702Z,542.00
2023-04-02T04:30:53.721Z,541.00
2023-04-02T04:31:53.761Z,539.00
2023-04-02T04:32:53.807Z,539.00
2023-04-02T04:33:53.783Z,540.00
2023-04-02T04:34:53.876Z,542.00
2023-04-02T04:35:53.841Z,542.00
2023-04-02T04:36:53.926Z,541.00
2023-04-02T04:37:54.603Z,541.00
2023-04-02T04:38:53.874Z,542.00
2023-04-02T04:39:53.886Z,543.00
2023-04-02T04:40:53.935Z,541.00
2023-04-02T04:41:53.919Z,540.00
2023-04-02T04:42:53.943Z,540.00
2023-04-02T04:43:53.966Z,538.00
2023-04-02T04:44:54.004Z,538.00
2023-04-02T04:45:54.020Z,541.00
2023-04-02T04:46:54.605Z,542.00
2023-04-02T04:47:54.067Z,545.00
2023-04-02T04:48:54.068Z,545.00
2023-04-02T04:49:54.089Z,545.00
2023-04-02T04:50:54.103Z,546.00
2023-04-02T04:51:54.616Z,546.00
2023-04-02T04:52:54.148Z,545.00
2023-04-02T04:53:54.163Z,545.00
2023-04-02T04:54:54.191Z,544.00
2023-04-02T04:55:54.212Z,543.00
2023-04-02T04:56:54.248Z,544.00
2023-04-02T04:57:54.252Z,541.00
2023-04-02T04:58:54.285Z,540.00
2023-04-02T04:59:54.301Z,541.00
2023-04-02T05:00:54.338Z,541.00
2023-04-02T05:01:54.341Z,543.00
2023-04-02T05:02:54.397Z,543.00
2023-04-02T05:03:54.372Z,543.00
2023-04-02T05:04:54.515Z,542.00
2023-04-02T05:05:54.437Z,546.00
2023-04-02T05:06:54.452Z,544.00
2023-04-02T05:07:54.481Z,544.00
2023-04-02T05:08:54.498Z,546.00
2023-04-02T05:09:54.531Z,547.00
2023-04-02T05:11:09.106Z,547.00
2023-04-02T05:11:54.554Z,551.00
2023-04-02T05:12:54.567Z,551.00
2023-04-02T05:13:54.579Z,551.00
2023-04-02T05:14:54.607Z,550.00
2023-04-02T05:15:54.672Z,548.00
2023-04-02T05:16:54.662Z,547.00
2023-04-02T05:17:54.645Z,545.00
2023-04-02T05:18:55.625Z,544.00
2023-04-02T05:19:54.675Z,545.00
2023-04-02T05:20:54.693Z,545.00
2023-04-02T05:21:54.708Z,544.00
2023-04-02T05:22:54.715Z,542.00
2023-04-02T05:23:54.762Z,541.00
2023-04-02T05:24:54.965Z,542.00
2023-04-02T05:25:54.764Z,542.00
2023-04-02T05:26:54.785Z,544.00
2023-04-02T05:27:54.796Z,545.00
2023-04-02T05:28:54.887Z,544.00
2023-04-02T05:29:54.827Z,545.00
2023-04-02T05:30:54.819Z,545.00
2023-04-02T05:31:54.833Z,544.00
2023-04-02T05:32:54.915Z,544.00
2023-04-02T05:33:54.873Z,543.00
2023-04-02T05:34:54.876Z,543.00
2023-04-02T05:35:54.928Z,543.00
2023-04-02T05:36:54.963Z,541.00
2023-04-02T05:37:54.946Z,542.00
2023-04-02T05:38:54.936Z,541.00
2023-04-02T05:39:54.960Z,541.00
2023-04-02T05:40:54.970Z,540.00
2023-04-02T05:41:54.977Z,540.00
2023-04-02T05:42:54.991Z,544.00
2023-04-02T05:43:55.015Z,544.00
2023-04-02T05:44:55.020Z,546.00
2023-04-02T05:45:55.032Z,543.00
2023-04-02T05:46:55.112Z,545.00
2023-04-02T05:47:55.081Z,546.00
2023-04-02T05:48:55.102Z,546.00
2023-04-02T05:49:55.090Z,547.00
2023-04-02T05:50:55.102Z,547.00
2023-04-02T05:51:57.433Z,549.00
2023-04-02T05:52:55.142Z,549.00
2023-04-02T05:53:55.195Z,546.00
2023-04-02T05:54:55.193Z,545.00
2023-04-02T05:55:55.188Z,545.00
2023-04-02T05:56:55.231Z,541.00
2023-04-02T05:58:13.537Z,542.00
2023-04-02T05:58:55.364Z,543.00
2023-04-02T05:59:55.266Z,543.00
2023-04-02T06:00:55.289Z,542.00
2023-04-02T06:01:55.320Z,542.00
2023-04-02T06:02:55.379Z,543.00
2023-04-02T06:03:55.408Z,543.00
2023-04-02T06:04:55.368Z,545.00
2023-04-02T06:05:55.372Z,543.00
2023-04-02T06:06:55.375Z,543.00
2023-04-02T06:07:55.411Z,544.00
2023-04-02T06:08:55.403Z,543.00
2023-04-02T06:09:55.442Z,542.00
2023-04-02T06:10:55.436Z,543.00
2023-04-02T06:11:55.446Z,545.00
2023-04-02T06:12:55.474Z,547.00
2023-04-02T06:13:55.487Z,545.00
2023-04-02T06:14:55.496Z,545.00
2023-04-02T06:15:55.513Z,543.00
2023-04-02T06:16:55.658Z,541.00
2023-04-02T06:17:55.628Z,540.00
2023-04-02T06:18:55.584Z,539.00
2023-04-02T06:19:55.585Z,542.00
2023-04-02T06:20:55.631Z,541.00
2023-04-02T06:21:56.131Z,539.00
2023-04-02T06:22:56.139Z,538.00
2023-04-02T06:23:55.676Z,540.00
2023-04-02T06:24:55.699Z,542.00
2023-04-02T06:25:55.720Z,542.00
2023-04-02T06:26:56.115Z,543.00
2023-04-02T06:27:56.121Z,544.00
2023-04-02T06:28:56.134Z,545.00
2023-04-02T06:29:56.122Z,544.00
2023-04-02T06:30:56.133Z,545.00
2023-04-02T06:31:56.167Z,544.00
2023-04-02T06:32:56.190Z,543.00
2023-04-02T06:33:56.130Z,545.00
2023-04-02T06:34:56.117Z,543.00
2023-04-02T06:35:56.148Z,543.00
2023-04-02T06:36:56.212Z,545.00
2023-04-02T06:37:56.121Z,543.00
2023-04-02T06:38:56.122Z,542.00
2023-04-02T06:39:56.122Z,543.00
2023-04-02T06:40:58.232Z,542.00
2023-04-02T06:41:56.138Z,541.00
2023-04-02T06:42:56.121Z,541.00
2023-04-02T06:43:56.124Z,541.00
2023-04-02T06:44:56.121Z,540.00
2023-04-02T06:45:56.147Z,540.00
2023-04-02T06:46:56.120Z,537.00
2023-04-02T06:47:56.165Z,538.00
2023-04-02T06:48:56.128Z,539.00
2023-04-02T06:49:56.119Z,539.00
2023-04-02T06:50:56.128Z,540.00
2023-04-02T06:51:56.134Z,540.00
2023-04-02T06:52:56.174Z,539.00
2023-04-02T06:53:56.156Z,540.00
2023-04-02T06:54:56.421Z,539.00
2023-04-02T06:55:56.192Z,539.00
2023-04-02T06:56:56.282Z,539.00
2023-04-02T06:57:56.228Z,539.00
2023-04-02T06:58:56.242Z,540.00
2023-04-02T06:59:56.261Z,540.00
2023-04-02T07:00:56.296Z,540.00
2023-04-02T07:01:56.347Z,539.00
2023-04-02T07:02:56.418Z,541.00
2023-04-02T07:03:56.339Z,542.00
2023-04-02T07:04:56.544Z,541.00
2023-04-02T07:05:56.374Z,539.00
2023-04-02T07:06:56.380Z,539.00
2023-04-02T07:07:56.397Z,539.00
2023-04-02T07:08:56.679Z,539.00
2023-04-02T07:09:56.430Z,539.00
2023-04-02T07:10:56.442Z,539.00
2023-04-02T07:11:56.459Z,540.00
2023-04-02T07:12:56.470Z,540.00
2023-04-02T07:13:56.485Z,540.00
2023-04-02T07:14:56.499Z,542.00
2023-04-02T07:15:56.546Z,544.00
2023-04-02T07:16:56.537Z,543.00
2023-04-02T07:17:56.570Z,542.00
2023-04-02T07:18:56.561Z,541.00
2023-04-02T07:19:56.569Z,542.00
2023-04-02T07:20:56.596Z,543.00
2023-04-02T07:21:56.606Z,541.00
2023-04-02T07:22:56.722Z,540.00
2023-04-02T07:23:56.633Z,542.00
2023-04-02T07:24:56.679Z,543.00
2023-04-02T07:25:56.659Z,542.00
2023-04-02T07:26:56.688Z,542.00
2023-04-02T07:27:57.195Z,539.00
2023-04-02T07:28:56.704Z,540.00
2023-04-02T07:29:56.722Z,541.00
2023-04-02T07:30:56.734Z,541.00
2023-04-02T07:31:56.774Z,543.00
2023-04-02T07:32:56.848Z,543.00
2023-04-02T07:33:57.214Z,540.00
2023-04-02T07:34:57.131Z,542.00
2023-04-02T07:35:57.187Z,542.00
2023-04-02T07:36:56.833Z,543.00
2023-04-02T07:37:57.172Z,545.00
2023-04-02T07:38:57.197Z,547.00
2023-04-02T07:39:57.656Z,546.00
2023-04-02T07:40:57.202Z,544.00
2023-04-02T07:41:57.202Z,543.00
2023-04-02T07:42:57.174Z,542.00
2023-04-02T07:43:57.181Z,542.00
2023-04-02T07:44:57.177Z,542.00
2023-04-02T07:45:57.181Z,543.00
2023-04-02T07:46:57.718Z,542.00
2023-04-02T07:47:57.219Z,542.00
2023-04-02T07:48:57.181Z,541.00
2023-04-02T07:49:57.183Z,540.00
2023-04-02T07:50:57.177Z,539.00
2023-04-02T07:51:57.180Z,538.00
2023-04-02T07:52:57.175Z,538.00
2023-04-02T07:53:57.201Z,536.00
2023-04-02T07:54:57.177Z,536.00
2023-04-02T07:55:57.176Z,537.00
2023-04-02T07:56:57.217Z,538.00
2023-04-02T07:57:57.188Z,540.00
2023-04-02T07:58:57.173Z,541.00
2023-04-02T07:59:57.195Z,541.00
2023-04-02T08:01:00.180Z,543.00
2023-04-02T08:01:57.286Z,542.00
2023-04-02T08:02:58.271Z,544.00
2023-04-02T08:03:57.315Z,544.00
2023-04-02T08:04:57.273Z,542.00
2023-04-02T08:05:57.308Z,543.00
2023-04-02T08:06:57.309Z,545.00
2023-04-02T08:07:57.332Z,544.00
2023-04-02T08:08:57.342Z,543.00
2023-04-02T08:09:57.381Z,544.00
2023-04-02T08:10:57.355Z,541.00
2023-04-02T08:11:57.372Z,544.00
2023-04-02T08:12:57.403Z,543.00
2023-04-02T08:13:57.393Z,544.00
2023-04-02T08:14:57.400Z,546.00
2023-04-02T08:15:57.416Z,546.00
2023-04-02T08:16:57.529Z,544.00
2023-04-02T08:17:57.510Z,545.00
2023-04-02T08:18:57.507Z,545.00
2023-04-02T08:19:57.528Z,543.00
2023-04-02T08:20:57.561Z,540.00
2023-04-02T08:21:57.585Z,539.00
2023-04-02T08:22:57.622Z,539.00
2023-04-02T08:23:57.661Z,540.00
2023-04-02T08:24:57.694Z,541.00
2023-04-02T08:25:57.722Z,543.00
2023-04-02T08:26:57.761Z,545.00
2023-04-02T08:27:57.795Z,544.00
2023-04-02T08:28:57.890Z,544.00
2023-04-02T08:29:57.870Z,544.00
2023-04-02T08:31:00.699Z,545.00
2023-04-02T08:31:57.909Z,546.00
2023-04-02T08:32:57.968Z,541.00
2023-04-02T08:33:57.944Z,538.00
2023-04-02T08:34:57.957Z,540.00
2023-04-02T08:35:58.002Z,542.00
2023-04-02T08:36:57.994Z,542.00
2023-04-02T08:37:58.007Z,543.00
2023-04-02T08:38:58.016Z,540.00
2023-04-02T08:39:58.038Z,539.00
2023-04-02T08:40:58.044Z,539.00
2023-04-02T08:41:58.079Z,540.00
2023-04-02T08:42:58.090Z,537.00
2023-04-02T08:43:58.125Z,538.00
2023-04-02T08:44:58.156Z,537.00
2023-04-02T08:45:58.182Z,539.00
2023-04-02T08:46:58.158Z,540.00
2023-04-02T08:47:58.705Z,539.00
2023-04-02T08:48:58.193Z,541.00
2023-04-02T08:49:58.232Z,541.00
2023-04-02T08:50:58.224Z,545.00
2023-04-02T08:51:58.245Z,543.00
2023-04-02T08:52:58.265Z,544.00
2023-04-02T08:53:58.272Z,545.00
2023-04-02T08:54:59.185Z,545.00
2023-04-02T08:55:58.298Z,544.00
2023-04-02T08:57:01.247Z,543.00
2023-04-02T08:57:58.340Z,545.00
2023-04-02T08:59:01.187Z,546.00
2023-04-02T08:59:58.361Z,545.00
2023-04-02T09:00:58.397Z,544.00
2023-04-02T09:01:58.462Z,543.00
2023-04-02T09:03:13.191Z,541.00
2023-04-02T09:03:58.422Z,544.00
2023-04-02T09:04:58.496Z,545.00
2023-04-02T09:05:58.435Z,546.00
2023-04-02T09:06:58.453Z,547.00
2023-04-02T09:07:58.470Z,545.00
2023-04-02T09:08:58.490Z,544.00
2023-04-02T09:09:58.493Z,546.00
2023-04-02T09:10:58.870Z,545.00
2023-04-02T09:11:58.524Z,545.00
2023-04-02T09:12:58.541Z,544.00
2023-04-02T09:13:58.562Z,544.00
2023-04-02T09:14:58.697Z,545.00
2023-04-02T09:15:58.625Z,543.00
2023-04-02T09:16:58.628Z,541.00
2023-04-02T09:17:59.622Z,541.00
2023-04-02T09:18:58.621Z,541.00
2023-04-02T09:19:58.637Z,539.00
2023-04-02T09:20:58.652Z,539.00
2023-04-02T09:21:58.682Z,542.00
2023-04-02T09:22:58.683Z,542.00
2023-04-02T09:23:58.716Z,545.00
2023-04-02T09:24:58.718Z,546.00
2023-04-02T09:26:04.212Z,544.00
2023-04-02T09:26:58.752Z,544.00
2023-04-02T09:27:58.777Z,544.00
2023-04-02T09:28:58.785Z,545.00
2023-04-02T09:29:58.800Z,545.00
2023-04-02T09:30:58.815Z,544.00
2023-04-02T09:31:58.924Z,545.00
2023-04-02T09:33:01.835Z,546.00
2023-04-02T09:33:59.214Z,548.00
2023-04-02T09:34:58.906Z,547.00
2023-04-02T09:35:58.953Z,548.00
2023-04-02T09:36:58.934Z,547.00
2023-04-02T09:37:58.954Z,547.00
2023-04-02T09:38:58.978Z,547.00
2023-04-02T09:39:58.996Z,546.00
2023-04-02T09:40:59.016Z,545.00
2023-04-02T09:42:05.778Z,545.00
2023-04-02T09:42:59.048Z,547.00
2023-04-02T09:43:59.214Z,545.00
2023-04-02T09:44:59.068Z,546.00
2023-04-02T09:45:59.081Z,548.00
2023-04-02T09:46:59.235Z,548.00
2023-04-02T09:47:59.209Z,546.00
2023-04-02T09:48:59.241Z,546.00
2023-04-02T09:49:59.130Z,544.00
2023-04-02T09:50:59.150Z,545.00
2023-04-02T09:51:59.168Z,547.00
2023-04-02T09:52:59.169Z,546.00
2023-04-02T09:53:59.190Z,545.00
2023-04-02T09:54:59.206Z,543.00
2023-04-02T09:55:59.220Z,544.00
2023-04-02T09:56:59.251Z,545.00
2023-04-02T09:58:01.936Z,547.00
2023-04-02T09:58:59.250Z,550.00
2023-04-02T09:59:59.269Z,549.00
2023-04-02T10:00:59.298Z,547.00
2023-04-02T10:01:59.300Z,546.00
2023-04-02T10:02:59.389Z,547.00
2023-04-02T10:03:59.532Z,550.00
2023-04-02T10:04:59.384Z,550.00
2023-04-02T10:05:59.370Z,549.00
2023-04-02T10:06:59.383Z,548.00
2023-04-02T10:07:59.395Z,550.00
2023-04-02T10:08:59.410Z,551.00
2023-04-02T10:09:59.425Z,549.00
2023-04-02T10:10:59.441Z,550.00
2023-04-02T10:11:59.465Z,551.00
2023-04-02T10:12:59.477Z,549.00
2023-04-02T10:13:59.493Z,550.00
2023-04-02T10:15:02.230Z,551.00
2023-04-02T10:15:59.727Z,551.00
2023-04-02T10:17:00.323Z,550.00
2023-04-02T10:17:59.598Z,550.00
2023-04-02T10:18:59.582Z,551.00
2023-04-02T10:19:58.589Z,550.00
2023-04-02T10:20:59.620Z,549.00
2023-04-02T10:21:59.615Z,549.00
2023-04-02T10:22:59.631Z,550.00
2023-04-02T10:23:59.667Z,550.00
2023-04-02T10:24:59.674Z,548.00
2023-04-02T10:25:59.673Z,550.00
2023-04-02T10:26:59.704Z,549.00
2023-04-02T10:27:59.695Z,547.00
2023-04-02T10:28:59.710Z,546.00
2023-04-02T10:30:00.721Z,547.00
2023-04-02T10:30:59.774Z,547.00
2023-04-02T10:31:59.760Z,549.00
2023-04-02T10:32:59.797Z,547.00
2023-04-02T10:33:59.780Z,547.00
2023-04-02T10:34:59.785Z,547.00
2023-04-02T10:35:59.876Z,543.00
2023-04-02T10:36:59.850Z,544.00
2023-04-02T10:37:59.869Z,545.00
2023-04-02T10:38:59.855Z,546.00
2023-04-02T10:39:59.865Z,545.00
2023-04-02T10:40:59.865Z,547.00
2023-04-02T10:41:59.879Z,547.00
2023-04-02T10:42:59.893Z,546.00
2023-04-02T10:44:09.191Z,545.00
2023-04-02T10:44:59.909Z,546.00
2023-04-02T10:45:59.939Z,546.00
2023-04-02T10:47:00.233Z,545.00
2023-04-02T10:47:59.983Z,545.00
2023-04-02T10:48:59.964Z,545.00
2023-04-02T10:49:59.974Z,544.00
2023-04-02T10:50:59.996Z,544.00
2023-04-02T10:52:00.008Z,547.00
2023-04-02T10:53:00.056Z,548.00
2023-04-02T10:54:00.038Z,545.00
2023-04-02T10:55:00.105Z,543.00
2023-04-02T10:56:00.068Z,543.00
2023-04-02T10:57:00.135Z,544.00
2023-04-02T10:58:00.114Z,545.00
2023-04-02T10:59:00.107Z,544.00
2023-04-02T11:00:00.161Z,543.00
2023-04-02T11:01:00.211Z,546.00
2023-04-02T11:02:00.259Z,548.00
2023-04-02T11:03:00.241Z,550.00
2023-04-02T11:04:00.248Z,549.00
2023-04-02T11:05:01.790Z,548.00
2023-04-02T11:06:00.186Z,547.00
2023-04-02T11:07:11.078Z,547.00
2023-04-02T11:08:00.243Z,545.00
2023-04-02T11:09:00.248Z,543.00
2023-04-02T11:10:00.263Z,542.00
2023-04-02T11:11:00.251Z,543.00
2023-04-02T11:12:00.251Z,543.00
2023-04-02T11:13:00.257Z,544.00
2023-04-02T11:14:00.291Z,544.00
2023-04-02T11:15:01.241Z,544.00
2023-04-02T11:16:00.768Z,542.00
2023-04-02T11:17:00.300Z,541.00
2023-04-02T11:18:00.383Z,541.00
2023-04-02T11:19:00.326Z,543.00
2023-04-02T11:20:00.359Z,544.00
2023-04-02T11:21:00.349Z,544.00
2023-04-02T11:22:01.959Z,546.00
2023-04-02T11:23:00.380Z,548.00
2023-04-02T11:24:00.399Z,549.00
2023-04-02T11:25:00.447Z,549.00
2023-04-02T11:26:00.420Z,547.00
2023-04-02T11:27:00.430Z,548.00
2023-04-02T11:28:00.459Z,548.00
2023-04-02T11:29:00.453Z,549.00
2023-04-02T11:30:00.476Z,546.00
2023-04-02T11:31:00.508Z,547.00
2023-04-02T11:32:00.495Z,546.00
2023-04-02T11:33:00.536Z,546.00
2023-04-02T11:34:00.517Z,545.00
2023-04-02T11:35:07.095Z,544.00
2023-04-02T11:36:00.604Z,544.00
2023-04-02T11:37:00.559Z,544.00
2023-04-02T11:38:00.754Z,542.00
2023-04-02T11:39:14.500Z,542.00
2023-04-02T11:40:00.604Z,544.00
2023-04-02T11:41:00.639Z,541.00
2023-04-02T11:42:00.621Z,541.00
2023-04-02T11:43:00.639Z,542.00
2023-04-02T11:44:00.669Z,541.00
2023-04-02T11:45:00.675Z,541.00
2023-04-02T11:46:00.689Z,542.00
2023-04-02T11:47:00.747Z,542.00
2023-04-02T11:48:00.900Z,542.00
2023-04-02T11:49:00.722Z,538.00
2023-04-02T11:50:00.779Z,538.00
2023-04-02T11:51:01.582Z,537.00
2023-04-02T11:52:11.339Z,540.00
2023-04-02T11:53:00.777Z,540.00
2023-04-02T11:54:00.796Z,542.00
2023-04-02T11:55:00.795Z,542.00
2023-04-02T11:56:00.800Z,541.00
2023-04-02T11:57:00.894Z,542.00
2023-04-02T11:58:01.003Z,543.00
2023-04-02T11:59:00.840Z,546.00
2023-04-02T12:00:00.866Z,544.00
2023-04-02T12:01:00.867Z,542.00
2023-04-02T12:02:00.899Z,541.00
2023-04-02T12:03:00.932Z,540.00
2023-04-02T12:04:00.911Z,539.00
2023-04-02T12:05:00.952Z,542.00
2023-04-02T12:06:02.842Z,544.00
2023-04-02T12:07:03.755Z,543.00
2023-04-02T12:08:01.788Z,540.00
2023-04-02T12:09:00.963Z,538.00
2023-04-02T12:10:00.990Z,537.00
2023-04-02T12:11:00.987Z,537.00
2023-04-02T12:12:01.006Z,539.00
2023-04-02T12:13:01.792Z,540.00
2023-04-02T12:14:01.011Z,540.00
2023-04-02T12:15:01.031Z,540.00
2023-04-02T12:16:01.764Z,541.00
2023-04-02T12:17:01.061Z,544.00
2023-04-02T12:18:01.078Z,545.00
2023-04-02T12:19:01.057Z,545.00
2023-04-02T12:20:01.892Z,545.00
2023-04-02T12:21:01.284Z,545.00
2023-04-02T12:22:01.336Z,545.00
2023-04-02T12:23:01.326Z,543.00
2023-04-02T12:24:01.355Z,542.00
2023-04-02T12:25:01.383Z,541.00
2023-04-02T12:26:01.387Z,542.00
2023-04-02T12:27:01.399Z,542.00
2023-04-02T12:28:01.430Z,542.00
2023-04-02T12:29:01.470Z,542.00